createdAt,value
2023-04-21T00:00:07.418Z,91.99
2023-04-21T00:00:18.162Z,91.99
2023-04-21T00:00:28.907Z,91.99
2023-04-21T00:00:39.675Z,91.99
2023-04-21T00:00:50.480Z,91.99
2023-04-21T00:01:02.934Z,91.99
2023-04-21T00:01:13.704Z,91.99
2023-04-21T00:01:26.194Z,91.99
2023-04-21T00:01:37.868Z,91.99
2023-04-21T00:01:50.082Z,91.99
2023-04-21T00:02:02.776Z,91.99
2023-04-21T00:02:16.108Z,91.99
2023-04-21T00:02:27.940Z,91.89
2023-04-21T00:02:38.724Z,91.89
2023-04-21T00:02:51.313Z,91.89
2023-04-21T00:03:02.193Z,91.89
2023-04-21T00:03:14.073Z,91.89
2023-04-21T00:03:25.234Z,91.89
2023-04-21T00:03:38.022Z,91.89
2023-04-21T00:03:49.123Z,91.89
2023-04-21T00:04:01.039Z,91.89
2023-04-21T00:04:12.903Z,91.89
2023-04-21T00:04:27.195Z,91.89
2023-04-21T00:04:39.186Z,91.89
2023-04-21T00:04:51.849Z,91.89
2023-04-21T00:05:02.781Z,91.99
2023-04-21T00:05:16.112Z,91.99
2023-04-21T00:05:27.193Z,91.99
2023-04-21T00:05:39.104Z,92.03
2023-04-21T00:05:51.715Z,92.03
2023-04-21T00:06:03.464Z,92.03
2023-04-21T00:06:16.447Z,92.03
2023-04-21T00:06:28.220Z,92.14
2023-04-21T00:06:40.062Z,92.14
2023-04-21T00:06:50.819Z,92.14
2023-04-21T00:07:01.534Z,92.24
2023-04-21T00:07:13.280Z,92.14
2023-04-21T00:07:25.049Z,92.14
2023-04-21T00:07:35.887Z,92.14
2023-04-21T00:07:46.618Z,92.14
2023-04-21T00:07:58.293Z,92.14
2023-04-21T00:08:09.016Z,92.14
2023-04-21T00:08:19.813Z,92.14
2023-04-21T00:08:30.595Z,92.14
2023-04-21T00:08:42.342Z,92.14
2023-04-21T00:08:54.046Z,92.24
2023-04-21T00:09:04.776Z,92.24
2023-04-21T00:09:16.540Z,92.24
2023-04-21T00:09:27.333Z,92.24
2023-04-21T00:09:38.049Z,92.24
2023-04-21T00:09:48.821Z,92.24
2023-04-21T00:09:59.570Z,92.24
2023-04-21T00:10:10.267Z,92.34
2023-04-21T00:10:22.709Z,92.34
2023-04-21T00:10:34.958Z,92.24
2023-04-21T00:10:45.654Z,92.34
2023-04-21T00:10:56.362Z,92.34
2023-04-21T00:11:07.128Z,92.44
2023-04-21T00:11:17.824Z,92.55
2023-04-21T00:11:28.533Z,92.55
2023-04-21T00:11:39.230Z,92.65
2023-04-21T00:11:49.980Z,92.65
2023-04-21T00:12:01.636Z,92.65
2023-04-21T00:12:12.346Z,92.65
2023-04-21T00:12:24.030Z,92.55
2023-04-21T00:12:34.760Z,92.55
2023-04-21T00:12:45.505Z,92.55
2023-04-21T00:12:56.238Z,92.55
2023-04-21T00:13:08.665Z,92.44
2023-04-21T00:13:19.461Z,92.44
2023-04-21T00:13:30.169Z,92.44
2023-04-21T00:13:41.841Z,92.44
2023-04-21T00:13:53.578Z,92.44
2023-04-21T00:14:04.271Z,92.44
2023-04-21T00:14:14.964Z,92.44
2023-04-21T00:14:26.714Z,92.55
2023-04-21T00:14:37.402Z,92.55
2023-04-21T00:14:48.260Z,92.55
2023-04-21T00:14:58.963Z,92.65
2023-04-21T00:15:09.682Z,92.65
2023-04-21T00:15:20.389Z,92.65
2023-04-21T00:15:31.100Z,92.65
2023-04-21T00:15:41.860Z,92.65
2023-04-21T00:15:53.631Z,92.65
2023-04-21T00:16:04.395Z,92.65
2023-04-21T00:16:15.142Z,92.76
2023-04-21T00:16:25.930Z,92.76
2023-04-21T00:16:36.753Z,92.76
2023-04-21T00:16:48.479Z,92.86
2023-04-21T00:16:59.204Z,92.86
2023-04-21T00:17:10.015Z,92.86
2023-04-21T00:17:20.730Z,92.86
2023-04-21T00:17:31.527Z,92.86
2023-04-21T00:17:42.290Z,92.86
2023-04-21T00:17:54.109Z,92.76
2023-04-21T00:18:04.806Z,92.76
2023-04-21T00:18:15.498Z,92.65
2023-04-21T00:18:26.219Z,92.65
2023-04-21T00:18:36.944Z,92.65
2023-04-21T00:18:49.133Z,92.65
2023-04-21T00:18:59.853Z,92.65
2023-04-21T00:19:11.552Z,92.55
2023-04-21T00:19:23.963Z,92.55
2023-04-21T00:19:35.653Z,92.55
2023-04-21T00:19:46.391Z,92.55
2023-04-21T00:19:58.131Z,92.55
2023-04-21T00:20:08.840Z,92.65
2023-04-21T00:20:22.010Z,92.55
2023-04-21T00:20:32.718Z,92.55
2023-04-21T00:20:43.464Z,92.55
2023-04-21T00:20:55.144Z,92.44
2023-04-21T00:21:05.831Z,92.44
2023-04-21T00:21:16.539Z,92.44
2023-04-21T00:21:28.252Z,92.34
2023-04-21T00:21:41.441Z,92.34
2023-04-21T00:21:52.165Z,92.34
2023-04-21T00:22:02.918Z,92.34
2023-04-21T00:22:14.616Z,92.24
2023-04-21T00:22:25.360Z,92.24
2023-04-21T00:22:36.069Z,92.24
2023-04-21T00:22:46.844Z,92.24
2023-04-21T00:22:59.336Z,92.24
2023-04-21T00:23:09.970Z,92.24
2023-04-21T00:23:21.709Z,92.24
2023-04-21T00:23:34.860Z,92.24
2023-04-21T00:23:47.287Z,92.14
2023-04-21T00:23:57.960Z,92.03
2023-04-21T00:24:09.671Z,92.03
2023-04-21T00:24:21.868Z,92.03
2023-04-21T00:24:34.267Z,91.93
2023-04-21T00:24:44.982Z,91.93
2023-04-21T00:24:57.395Z,91.93
2023-04-21T00:25:08.118Z,91.93
2023-04-21T00:25:18.818Z,91.93
2023-04-21T00:25:31.036Z,91.93
2023-04-21T00:25:41.769Z,91.93
2023-04-21T00:25:52.497Z,91.93
2023-04-21T00:26:04.644Z,91.93
2023-04-21T00:26:15.391Z,91.93
2023-04-21T00:26:27.065Z,91.93
2023-04-21T00:26:37.826Z,91.93
2023-04-21T00:26:49.483Z,91.93
2023-04-21T00:27:03.219Z,92.03
2023-04-21T00:27:13.923Z,92.03
2023-04-21T00:27:26.370Z,92.03
2023-04-21T00:27:39.573Z,92.03
2023-04-21T00:27:52.019Z,92.03
2023-04-21T00:28:02.748Z,92.03
2023-04-21T00:28:14.490Z,92.03
2023-04-21T00:28:27.418Z,91.93
2023-04-21T00:28:38.158Z,91.93
2023-04-21T00:28:50.612Z,91.93
2023-04-21T00:29:02.313Z,91.93
2023-04-21T00:29:13.095Z,91.93
2023-04-21T00:29:23.802Z,92.03
2023-04-21T00:29:35.479Z,92.03
2023-04-21T00:29:48.431Z,92.03
2023-04-21T00:30:00.851Z,92.03
2023-04-21T00:30:13.064Z,92.03
2023-04-21T00:30:26.758Z,92.03
2023-04-21T00:30:38.477Z,92.03
2023-04-21T00:30:50.908Z,92.03
2023-04-21T00:31:02.603Z,92.03
2023-04-21T00:31:13.309Z,92.14
2023-04-21T00:31:25.743Z,92.14
2023-04-21T00:31:38.987Z,92.14
2023-04-21T00:31:49.835Z,92.14
2023-04-21T00:32:02.304Z,92.14
2023-04-21T00:32:13.001Z,92.14
2023-04-21T00:32:23.714Z,92.03
2023-04-21T00:32:34.481Z,92.03
2023-04-21T00:32:45.232Z,92.03
2023-04-21T00:32:55.981Z,92.03
2023-04-21T00:33:08.387Z,91.93
2023-04-21T00:33:19.111Z,91.93
2023-04-21T00:33:29.805Z,91.93
2023-04-21T00:33:40.578Z,91.93
2023-04-21T00:33:51.319Z,91.93
2023-04-21T00:34:01.989Z,91.93
2023-04-21T00:34:13.683Z,91.93
2023-04-21T00:34:24.395Z,91.93
2023-04-21T00:34:35.096Z,91.93
2023-04-21T00:34:45.816Z,91.93
2023-04-21T00:34:56.516Z,91.83
2023-04-21T00:35:08.184Z,91.83
2023-04-21T00:35:18.907Z,91.83
2023-04-21T00:35:29.638Z,91.83
2023-04-21T00:35:42.853Z,91.78
2023-04-21T00:35:53.581Z,91.68
2023-04-21T00:36:04.295Z,91.58
2023-04-21T00:36:15.037Z,91.58
2023-04-21T00:36:25.755Z,91.58
2023-04-21T00:36:36.490Z,91.47
2023-04-21T00:36:47.194Z,91.47
2023-04-21T00:36:57.926Z,91.47
2023-04-21T00:37:08.686Z,91.47
2023-04-21T00:37:21.082Z,91.38
2023-04-21T00:37:32.813Z,91.38
2023-04-21T00:37:43.540Z,91.38
2023-04-21T00:37:54.274Z,91.27
2023-04-21T00:38:04.972Z,91.27
2023-04-21T00:38:15.683Z,91.27
2023-04-21T00:38:27.400Z,91.17
2023-04-21T00:38:38.125Z,91.06
2023-04-21T00:38:48.862Z,91.06
2023-04-21T00:39:00.546Z,90.96
2023-04-21T00:39:11.306Z,90.86
2023-04-21T00:39:22.154Z,90.86
2023-04-21T00:39:32.928Z,90.75
2023-04-21T00:39:43.683Z,90.66
2023-04-21T00:39:56.083Z,90.66
2023-04-21T00:40:06.840Z,90.55
2023-04-21T00:40:17.518Z,90.55
2023-04-21T00:40:30.007Z,90.55
2023-04-21T00:40:40.693Z,90.41
2023-04-21T00:40:51.400Z,90.30
2023-04-21T00:41:02.126Z,90.30
2023-04-21T00:41:12.864Z,90.30
2023-04-21T00:41:23.587Z,90.20
2023-04-21T00:41:34.326Z,90.20
2023-04-21T00:41:45.984Z,90.20
2023-04-21T00:41:58.458Z,90.09
2023-04-21T00:42:11.638Z,90.09
2023-04-21T00:42:23.329Z,90.09
2023-04-21T00:42:34.014Z,90.09
2023-04-21T00:42:44.754Z,90.00
2023-04-21T00:42:56.483Z,90.00
2023-04-21T00:43:08.888Z,89.89
2023-04-21T00:43:21.301Z,89.79
2023-04-21T00:43:32.076Z,89.79
2023-04-21T00:43:42.751Z,89.69
2023-04-21T00:43:54.469Z,89.69
2023-04-21T00:44:06.136Z,89.58
2023-04-21T00:44:16.861Z,89.48
2023-04-21T00:44:29.282Z,89.48
2023-04-21T00:44:41.721Z,89.38
2023-04-21T00:44:54.195Z,89.38
2023-04-21T00:45:06.136Z,89.23
2023-04-21T00:45:18.562Z,89.28
2023-04-21T00:45:30.716Z,89.13
2023-04-21T00:45:41.399Z,89.13
2023-04-21T00:45:52.123Z,89.03
2023-04-21T00:46:02.841Z,89.03
2023-04-21T00:46:14.524Z,88.92
2023-04-21T00:46:25.414Z,88.92
2023-04-21T00:46:36.123Z,88.92
2023-04-21T00:46:47.777Z,88.92
2023-04-21T00:46:59.476Z,88.92
2023-04-21T00:47:13.276Z,88.92
2023-04-21T00:47:24.037Z,88.92
2023-04-21T00:47:37.194Z,88.82
2023-04-21T00:47:47.978Z,88.82
2023-04-21T00:47:58.651Z,88.72
2023-04-21T00:48:11.099Z,88.72
2023-04-21T00:48:22.780Z,88.72
2023-04-21T00:48:35.518Z,88.72
2023-04-21T00:48:46.226Z,88.72
2023-04-21T00:48:58.411Z,88.72
2023-04-21T00:49:10.902Z,88.72
2023-04-21T00:49:23.165Z,88.62
2023-04-21T00:49:34.830Z,88.62
2023-04-21T00:49:45.570Z,88.62
2023-04-21T00:49:57.251Z,88.62
2023-04-21T00:50:08.917Z,88.62
2023-04-21T00:50:21.105Z,88.51
2023-04-21T00:50:31.798Z,88.51
2023-04-21T00:50:42.507Z,88.51
2023-04-21T00:50:54.202Z,88.51
2023-04-21T00:51:05.850Z,88.51
2023-04-21T00:51:19.528Z,88.51
2023-04-21T00:51:30.228Z,88.62
2023-04-21T00:51:42.455Z,88.62
2023-04-21T00:51:53.153Z,88.62
2023-04-21T00:52:04.833Z,88.62
2023-04-21T00:52:15.520Z,88.51
2023-04-21T00:52:27.247Z,88.51
2023-04-21T00:52:39.164Z,88.51
2023-04-21T00:52:49.906Z,88.51
2023-04-21T00:53:00.600Z,88.41
2023-04-21T00:53:12.381Z,88.41
2023-04-21T00:53:23.054Z,88.41
2023-04-21T00:53:33.746Z,88.41
2023-04-21T00:53:44.458Z,88.41
2023-04-21T00:53:55.171Z,88.31
2023-04-21T00:54:07.578Z,88.31
2023-04-21T00:54:20.475Z,88.31
2023-04-21T00:54:31.968Z,88.31
2023-04-21T00:54:44.446Z,88.31
2023-04-21T00:54:55.231Z,88.31
2023-04-21T00:55:07.420Z,88.31
2023-04-21T00:55:18.127Z,88.20
2023-04-21T00:55:30.599Z,88.20
2023-04-21T00:55:41.351Z,88.10
2023-04-21T00:55:52.958Z,88.10
2023-04-21T00:56:05.404Z,88.10
2023-04-21T00:56:16.099Z,88.10
2023-04-21T00:56:26.838Z,88.10
2023-04-21T00:56:37.545Z,88.10
2023-04-21T00:56:49.264Z,88.10
2023-04-21T00:57:01.625Z,88.10
2023-04-21T00:57:15.100Z,88.10
2023-04-21T00:57:25.877Z,88.20
2023-04-21T00:57:36.636Z,88.20
2023-04-21T00:57:48.384Z,88.20
2023-04-21T00:57:59.065Z,88.31
2023-04-21T00:58:09.784Z,88.20
2023-04-21T00:58:21.982Z,88.20
2023-04-21T00:58:32.740Z,88.20
2023-04-21T00:58:44.393Z,88.20
2023-04-21T00:58:57.582Z,88.20
2023-04-21T00:59:08.304Z,88.10
2023-04-21T00:59:19.295Z,88.10
2023-04-21T00:59:31.838Z,88.10
2023-04-21T00:59:42.550Z,88.00
2023-04-21T00:59:54.243Z,88.00
2023-04-21T01:00:04.936Z,88.00
2023-04-21T01:00:15.676Z,88.00
2023-04-21T01:00:28.355Z,88.10
2023-04-21T01:00:39.069Z,88.00
2023-04-21T01:00:49.750Z,88.00
2023-04-21T01:01:00.515Z,88.00
2023-04-21T01:01:11.208Z,88.00
2023-04-21T01:01:22.069Z,88.00
2023-04-21T01:01:34.384Z,88.00
2023-04-21T01:01:45.154Z,88.10
2023-04-21T01:01:55.916Z,88.10
2023-04-21T01:02:08.001Z,88.10
2023-04-21T01:02:20.590Z,88.10
2023-04-21T01:02:33.214Z,88.10
2023-04-21T01:02:44.033Z,88.20
2023-04-21T01:02:56.709Z,88.20
2023-04-21T01:03:07.803Z,88.20
2023-04-21T01:03:18.934Z,88.20
2023-04-21T01:03:30.009Z,88.20
2023-04-21T01:03:40.943Z,88.20
2023-04-21T01:03:51.770Z,88.20
2023-04-21T01:04:02.732Z,88.20
2023-04-21T01:04:15.196Z,88.31
2023-04-21T01:04:27.613Z,88.31
2023-04-21T01:04:38.370Z,88.41
2023-04-21T01:04:50.088Z,88.41
2023-04-21T01:05:01.788Z,88.51
2023-04-21T01:05:12.509Z,88.41
2023-04-21T01:05:24.681Z,88.51
2023-04-21T01:05:37.354Z,88.51
2023-04-21T01:05:48.115Z,88.56
2023-04-21T01:06:01.309Z,88.51
2023-04-21T01:06:12.023Z,88.56
2023-04-21T01:06:22.792Z,88.62
2023-04-21T01:06:33.501Z,88.66
2023-04-21T01:06:46.437Z,88.56
2023-04-21T01:06:57.136Z,88.51
2023-04-21T01:07:09.598Z,88.56
2023-04-21T01:07:22.273Z,88.56
2023-04-21T01:07:33.966Z,88.56
2023-04-21T01:07:45.645Z,88.56
2023-04-21T01:07:58.064Z,88.56
2023-04-21T01:08:08.769Z,88.66
2023-04-21T01:08:19.477Z,88.66
2023-04-21T01:08:32.161Z,88.66
2023-04-21T01:08:42.872Z,88.66
2023-04-21T01:08:53.597Z,88.66
2023-04-21T01:09:04.295Z,88.66
2023-04-21T01:09:16.576Z,88.66
2023-04-21T01:09:27.401Z,88.76
2023-04-21T01:09:38.432Z,88.76
2023-04-21T01:09:50.111Z,88.76
2023-04-21T01:10:01.861Z,88.76
2023-04-21T01:10:14.307Z,88.76
2023-04-21T01:10:26.047Z,88.76
2023-04-21T01:10:36.742Z,88.76
2023-04-21T01:10:47.505Z,88.76
2023-04-21T01:10:59.193Z,88.72
2023-04-21T01:11:12.375Z,88.72
2023-04-21T01:11:23.101Z,88.72
2023-04-21T01:11:33.838Z,88.72
2023-04-21T01:11:46.332Z,88.62
2023-04-21T01:11:57.032Z,88.72
2023-04-21T01:12:08.726Z,88.72
2023-04-21T01:12:22.451Z,88.62
2023-04-21T01:12:33.146Z,88.62
2023-04-21T01:12:45.349Z,88.62
2023-04-21T01:12:56.033Z,88.62
2023-04-21T01:13:06.724Z,88.51
2023-04-21T01:13:19.898Z,88.51
2023-04-21T01:13:32.419Z,88.41
2023-04-21T01:13:44.960Z,88.41
2023-04-21T01:13:55.698Z,88.31
2023-04-21T01:14:06.384Z,88.31
2023-04-21T01:14:18.779Z,88.31
2023-04-21T01:14:31.192Z,88.31
2023-04-21T01:14:41.903Z,88.31
2023-04-21T01:14:52.674Z,88.20
2023-04-21T01:15:05.841Z,88.20
2023-04-21T01:15:16.556Z,88.20
2023-04-21T01:15:29.459Z,88.20
2023-04-21T01:15:41.984Z,88.10
2023-04-21T01:15:54.936Z,88.10
2023-04-21T01:16:05.680Z,88.10
2023-04-21T01:16:17.430Z,88.10
2023-04-21T01:16:30.834Z,88.10
2023-04-21T01:16:42.573Z,88.00
2023-04-21T01:16:54.304Z,88.00
2023-04-21T01:17:05.043Z,88.00
2023-04-21T01:17:17.257Z,88.00
2023-04-21T01:17:27.980Z,88.00
2023-04-21T01:17:39.684Z,88.00
2023-04-21T01:17:50.485Z,88.00
2023-04-21T01:18:02.953Z,88.00
2023-04-21T01:18:14.712Z,88.00
2023-04-21T01:18:26.445Z,88.00
2023-04-21T01:18:38.873Z,88.10
2023-04-21T01:18:49.617Z,88.10
2023-04-21T01:19:00.305Z,88.10
2023-04-21T01:19:12.726Z,88.10
2023-04-21T01:19:25.138Z,88.00
2023-04-21T01:19:35.891Z,88.00
2023-04-21T01:19:46.572Z,88.00
2023-04-21T01:19:57.293Z,88.00
2023-04-21T01:20:08.056Z,88.00
2023-04-21T01:20:18.788Z,88.00
2023-04-21T01:20:30.466Z,88.00
2023-04-21T01:20:43.173Z,88.00
2023-04-21T01:20:53.869Z,88.00
2023-04-21T01:21:05.576Z,88.00
2023-04-21T01:21:17.212Z,87.90
2023-04-21T01:21:27.883Z,87.90
2023-04-21T01:21:38.556Z,87.90
2023-04-21T01:21:49.246Z,87.90
2023-04-21T01:22:00.984Z,87.90
2023-04-21T01:22:11.667Z,87.90
2023-04-21T01:22:22.399Z,87.90
2023-04-21T01:22:34.077Z,87.90
2023-04-21T01:22:44.770Z,87.90
2023-04-21T01:22:58.200Z,87.90
2023-04-21T01:23:08.897Z,87.90
2023-04-21T01:23:20.563Z,87.90
2023-04-21T01:23:31.263Z,87.79
2023-04-21T01:23:43.990Z,87.75
2023-04-21T01:23:54.729Z,87.75
2023-04-21T01:24:05.445Z,87.75
2023-04-21T01:24:16.363Z,87.65
2023-04-21T01:24:27.119Z,87.65
2023-04-21T01:24:39.514Z,87.55
2023-04-21T01:24:50.198Z,87.55
2023-04-21T01:25:00.892Z,87.55
2023-04-21T01:25:11.598Z,87.55
2023-04-21T01:25:22.295Z,87.45
2023-04-21T01:25:33.002Z,87.45
2023-04-21T01:25:43.799Z,87.45
2023-04-21T01:25:54.510Z,87.34
2023-04-21T01:26:06.199Z,87.34
2023-04-21T01:26:17.883Z,87.34
2023-04-21T01:26:30.304Z,87.24
2023-04-21T01:26:41.003Z,87.24
2023-04-21T01:26:51.687Z,87.24
2023-04-21T01:27:02.453Z,87.13
2023-04-21T01:27:13.192Z,87.13
2023-04-21T01:27:23.910Z,87.13
2023-04-21T01:27:34.625Z,87.13
2023-04-21T01:27:46.372Z,87.04
2023-04-21T01:27:59.560Z,87.04
2023-04-21T01:28:11.215Z,87.04
2023-04-21T01:28:24.361Z,87.04
2023-04-21T01:28:35.105Z,86.93
2023-04-21T01:28:45.820Z,87.04
2023-04-21T01:28:57.547Z,87.04
2023-04-21T01:29:09.909Z,87.04
2023-04-21T01:29:22.328Z,87.04
2023-04-21T01:29:34.523Z,87.04
2023-04-21T01:29:48.704Z,87.04
2023-04-21T01:29:59.411Z,87.04
2023-04-21T01:30:11.831Z,87.04
2023-04-21T01:30:25.504Z,87.04
2023-04-21T01:30:39.192Z,87.04
2023-04-21T01:30:50.893Z,87.13
2023-04-21T01:31:04.109Z,87.13
2023-04-21T01:31:14.826Z,87.13
2023-04-21T01:31:25.594Z,87.13
2023-04-21T01:31:36.319Z,87.13
2023-04-21T01:31:47.024Z,87.13
2023-04-21T01:31:57.887Z,87.24
2023-04-21T01:32:09.604Z,87.24
2023-04-21T01:32:20.389Z,87.24
2023-04-21T01:32:31.171Z,87.24
2023-04-21T01:32:42.969Z,87.13
2023-04-21T01:32:55.393Z,87.13
2023-04-21T01:33:08.635Z,87.04
2023-04-21T01:33:19.488Z,87.04
2023-04-21T01:33:30.204Z,86.93
2023-04-21T01:33:41.860Z,86.93
2023-04-21T01:33:52.566Z,86.93
2023-04-21T01:34:06.264Z,86.83
2023-04-21T01:34:17.021Z,86.83
2023-04-21T01:34:29.180Z,86.72
2023-04-21T01:34:40.002Z,86.83
2023-04-21T01:34:51.867Z,86.83
2023-04-21T01:35:02.586Z,86.83
2023-04-21T01:35:14.266Z,86.83
2023-04-21T01:35:25.934Z,86.83
2023-04-21T01:35:37.620Z,86.83
2023-04-21T01:35:50.006Z,86.83
2023-04-21T01:36:02.426Z,86.83
2023-04-21T01:36:15.614Z,86.83
2023-04-21T01:36:26.318Z,86.72
2023-04-21T01:36:38.809Z,86.72
2023-04-21T01:36:51.061Z,86.72
2023-04-21T01:37:03.477Z,86.72
2023-04-21T01:37:14.193Z,86.72
2023-04-21T01:37:26.626Z,86.72
2023-04-21T01:37:39.735Z,86.83
2023-04-21T01:37:50.413Z,86.83
2023-04-21T01:38:01.114Z,86.83
2023-04-21T01:38:11.825Z,86.83
2023-04-21T01:38:22.524Z,86.83
2023-04-21T01:38:34.932Z,86.72
2023-04-21T01:38:45.649Z,86.72
2023-04-21T01:38:58.314Z,86.72
2023-04-21T01:39:09.073Z,86.72
2023-04-21T01:39:21.756Z,86.72
2023-04-21T01:39:34.164Z,86.72
2023-04-21T01:39:45.896Z,86.72
2023-04-21T01:39:58.112Z,86.72
2023-04-21T01:40:10.778Z,86.62
2023-04-21T01:40:22.491Z,86.62
2023-04-21T01:40:33.228Z,86.62
2023-04-21T01:40:46.921Z,86.62
2023-04-21T01:40:59.351Z,86.62
2023-04-21T01:41:10.146Z,86.62
2023-04-21T01:41:22.310Z,86.62
2023-04-21T01:41:32.993Z,86.62
2023-04-21T01:41:43.789Z,86.62
2023-04-21T01:41:56.214Z,86.62
2023-04-21T01:42:07.886Z,86.62
2023-04-21T01:42:20.317Z,86.62
2023-04-21T01:42:32.726Z,86.52
2023-04-21T01:42:44.393Z,86.62
2023-04-21T01:42:55.134Z,86.62
2023-04-21T01:43:05.819Z,86.62
2023-04-21T01:43:18.228Z,86.62
2023-04-21T01:43:30.645Z,86.62
2023-04-21T01:43:41.384Z,86.62
2023-04-21T01:43:53.099Z,86.52
2023-04-21T01:44:03.876Z,86.52
2023-04-21T01:44:16.572Z,86.52
2023-04-21T01:44:30.260Z,86.42
2023-04-21T01:44:41.964Z,86.42
2023-04-21T01:44:52.690Z,86.32
2023-04-21T01:45:03.407Z,86.32
2023-04-21T01:45:14.126Z,86.32
2023-04-21T01:45:26.658Z,86.21
2023-04-21T01:45:37.431Z,86.21
2023-04-21T01:45:49.207Z,86.21
2023-04-21T01:45:59.990Z,86.21
2023-04-21T01:46:10.932Z,86.11
2023-04-21T01:46:21.693Z,86.11
2023-04-21T01:46:33.653Z,86.11
2023-04-21T01:46:44.400Z,86.11
2023-04-21T01:46:56.787Z,86.11
2023-04-21T01:47:07.520Z,86.00
2023-04-21T01:47:19.968Z,86.00
2023-04-21T01:47:31.690Z,85.90
2023-04-21T01:47:43.375Z,85.90
2023-04-21T01:47:54.188Z,85.90
2023-04-21T01:48:04.877Z,85.90
2023-04-21T01:48:15.707Z,85.90
2023-04-21T01:48:26.413Z,86.00
2023-04-21T01:48:38.144Z,86.00
2023-04-21T01:48:48.837Z,85.90
2023-04-21T01:48:59.523Z,85.80
2023-04-21T01:49:13.754Z,85.80
2023-04-21T01:49:26.423Z,85.80
2023-04-21T01:49:38.836Z,85.70
2023-04-21T01:49:49.561Z,85.66
2023-04-21T01:50:00.357Z,85.55
2023-04-21T01:50:11.016Z,85.55
2023-04-21T01:50:21.747Z,85.55
2023-04-21T01:50:32.449Z,85.55
2023-04-21T01:50:43.221Z,85.55
2023-04-21T01:50:53.937Z,85.55
2023-04-21T01:51:06.334Z,85.46
2023-04-21T01:51:18.781Z,85.46
2023-04-21T01:51:29.467Z,85.46
2023-04-21T01:51:42.392Z,85.46
2023-04-21T01:51:53.087Z,85.46
2023-04-21T01:52:03.848Z,85.46
2023-04-21T01:52:15.507Z,85.35
2023-04-21T01:52:27.688Z,85.35
2023-04-21T01:52:38.380Z,85.35
2023-04-21T01:52:50.118Z,85.35
2023-04-21T01:53:01.829Z,85.25
2023-04-21T01:53:12.553Z,85.25
2023-04-21T01:53:23.240Z,85.35
2023-04-21T01:53:33.999Z,85.35
2023-04-21T01:53:46.402Z,85.25
2023-04-21T01:53:58.958Z,85.25
2023-04-21T01:54:09.674Z,85.14
2023-04-21T01:54:22.068Z,85.14
2023-04-21T01:54:32.824Z,85.14
2023-04-21T01:54:45.242Z,85.14
2023-04-21T01:54:55.985Z,85.04
2023-04-21T01:55:06.705Z,85.04
2023-04-21T01:55:17.441Z,85.04
2023-04-21T01:55:28.152Z,85.04
2023-04-21T01:55:40.562Z,85.04
2023-04-21T01:55:53.497Z,85.04
2023-04-21T01:56:06.512Z,85.04
2023-04-21T01:56:17.215Z,84.94
2023-04-21T01:56:29.167Z,85.04
2023-04-21T01:56:39.888Z,85.04
2023-04-21T01:56:50.601Z,84.94
2023-04-21T01:57:01.308Z,84.94
2023-04-21T01:57:12.042Z,84.94
2023-04-21T01:57:24.477Z,84.94
2023-04-21T01:57:36.148Z,84.84
2023-04-21T01:57:46.897Z,84.84
2023-04-21T01:58:02.078Z,84.84
2023-04-21T01:58:12.783Z,84.74
2023-04-21T01:58:23.515Z,84.74
2023-04-21T01:58:36.682Z,84.74
2023-04-21T01:58:49.125Z,84.63
2023-04-21T01:58:59.871Z,84.63
2023-04-21T01:59:11.557Z,84.63
2023-04-21T01:59:23.230Z,84.63
2023-04-21T01:59:33.991Z,84.63
2023-04-21T01:59:45.654Z,84.63
2023-04-21T01:59:56.376Z,84.63
2023-04-21T02:00:08.564Z,84.63
2023-04-21T02:00:19.549Z,84.63
2023-04-21T02:00:30.260Z,84.53
2023-04-21T02:00:40.975Z,84.53
2023-04-21T02:00:54.641Z,84.53
2023-04-21T02:01:07.067Z,84.53
2023-04-21T02:01:19.546Z,84.53
2023-04-21T02:01:30.284Z,84.42
2023-04-21T02:01:42.021Z,84.42
2023-04-21T02:01:52.808Z,84.42
2023-04-21T02:02:04.631Z,84.42
2023-04-21T02:02:15.576Z,84.42
2023-04-21T02:02:27.506Z,84.53
2023-04-21T02:02:40.092Z,84.53
2023-04-21T02:02:51.984Z,84.63
2023-04-21T02:03:04.301Z,84.74
2023-04-21T02:03:17.675Z,84.74
2023-04-21T02:03:28.592Z,84.74
2023-04-21T02:03:40.492Z,84.63
2023-04-21T02:03:51.562Z,84.63
2023-04-21T02:04:03.548Z,84.63
2023-04-21T02:04:15.492Z,84.63
2023-04-21T02:04:28.136Z,84.53
2023-04-21T02:04:39.064Z,84.53
2023-04-21T02:04:49.884Z,84.42
2023-04-21T02:05:02.592Z,84.42
2023-04-21T02:05:15.525Z,84.42
2023-04-21T02:05:26.215Z,84.32
2023-04-21T02:05:39.125Z,84.32
2023-04-21T02:05:51.299Z,84.32
2023-04-21T02:06:03.530Z,84.32
2023-04-21T02:06:15.969Z,84.32
2023-04-21T02:06:28.404Z,84.32
2023-04-21T02:06:40.206Z,84.32
2023-04-21T02:06:50.902Z,84.22
2023-04-21T02:07:02.585Z,84.18
2023-04-21T02:07:13.272Z,84.08
2023-04-21T02:07:24.003Z,84.08
2023-04-21T02:07:34.674Z,84.08
2023-04-21T02:07:46.339Z,84.08
2023-04-21T02:07:57.044Z,84.08
2023-04-21T02:08:08.770Z,84.08
2023-04-21T02:08:19.488Z,83.98
2023-04-21T02:08:33.125Z,83.98
2023-04-21T02:08:45.557Z,83.98
2023-04-21T02:08:57.237Z,83.98
2023-04-21T02:09:09.619Z,83.98
2023-04-21T02:09:20.587Z,84.01
2023-04-21T02:09:32.419Z,83.98
2023-04-21T02:09:44.139Z,83.98
2023-04-21T02:09:57.311Z,83.98
2023-04-21T02:10:09.473Z,84.08
2023-04-21T02:10:21.662Z,84.12
2023-04-21T02:10:34.094Z,84.01
2023-04-21T02:10:44.793Z,84.01
2023-04-21T02:10:55.536Z,83.98
2023-04-21T02:11:07.257Z,84.01
2023-04-21T02:11:17.951Z,83.98
2023-04-21T02:11:30.356Z,84.12
2023-04-21T02:11:41.089Z,83.98
2023-04-21T02:11:51.798Z,83.98
2023-04-21T02:12:04.990Z,83.98
2023-04-21T02:12:15.693Z,83.98
2023-04-21T02:12:26.425Z,83.98
2023-04-21T02:12:38.901Z,83.98
2023-04-21T02:12:50.574Z,83.98
2023-04-21T02:13:01.328Z,83.98
2023-04-21T02:13:13.758Z,83.98
2023-04-21T02:13:26.198Z,83.98
2023-04-21T02:13:38.634Z,83.98
2023-04-21T02:13:50.324Z,83.98
2023-04-21T02:14:01.064Z,83.87
2023-04-21T02:14:11.793Z,83.98
2023-04-21T02:14:24.485Z,83.87
2023-04-21T02:14:36.950Z,83.91
2023-04-21T02:14:47.714Z,84.01
2023-04-21T02:14:58.455Z,83.91
2023-04-21T02:15:10.182Z,83.91
2023-04-21T02:15:23.859Z,84.01
2023-04-21T02:15:36.313Z,84.01
2023-04-21T02:15:47.006Z,84.01
2023-04-21T02:16:12.089Z,84.12
2023-04-21T02:16:15.347Z,84.12
2023-04-21T02:16:28.102Z,84.12
2023-04-21T02:16:38.834Z,84.12
2023-04-21T02:16:52.043Z,84.12
2023-04-21T02:17:04.439Z,84.12
2023-04-21T02:17:16.263Z,84.12
2023-04-21T02:17:28.266Z,84.12
2023-04-21T02:17:39.942Z,84.12
2023-04-21T02:17:50.708Z,84.12
2023-04-21T02:18:04.377Z,84.12
2023-04-21T02:18:15.150Z,84.01
2023-04-21T02:18:25.876Z,84.01
2023-04-21T02:18:38.062Z,84.01
2023-04-21T02:18:49.734Z,84.12
2023-04-21T02:19:01.406Z,84.12
2023-04-21T02:19:13.823Z,84.12
2023-04-21T02:19:26.265Z,84.01
2023-04-21T02:19:39.453Z,84.01
2023-04-21T02:19:50.157Z,83.87
2023-04-21T02:20:04.042Z,83.87
2023-04-21T02:20:14.910Z,83.98
2023-04-21T02:20:25.634Z,83.98
2023-04-21T02:20:36.343Z,83.98
2023-04-21T02:20:47.046Z,83.98
2023-04-21T02:20:57.853Z,83.91
2023-04-21T02:21:10.038Z,83.87
2023-04-21T02:21:22.454Z,83.87
2023-04-21T02:21:33.172Z,83.87
2023-04-21T02:21:43.891Z,83.87
2023-04-21T02:21:57.117Z,83.91
2023-04-21T02:22:09.294Z,83.87
2023-04-21T02:22:21.738Z,83.87
2023-04-21T02:22:32.451Z,83.87
2023-04-21T02:22:43.188Z,83.87
2023-04-21T02:22:53.903Z,83.87
2023-04-21T02:23:04.620Z,83.87
2023-04-21T02:23:16.805Z,83.87
2023-04-21T02:23:27.511Z,83.87
2023-04-21T02:23:38.289Z,83.77
2023-04-21T02:23:49.018Z,83.77
2023-04-21T02:23:59.717Z,83.77
2023-04-21T02:24:12.129Z,83.77
2023-04-21T02:24:22.843Z,83.77
2023-04-21T02:24:34.511Z,83.87
2023-04-21T02:24:46.193Z,83.87
2023-04-21T02:24:57.854Z,83.87
2023-04-21T02:25:08.620Z,83.87
2023-04-21T02:25:21.017Z,83.87
2023-04-21T02:25:31.764Z,83.77
2023-04-21T02:25:44.934Z,83.77
2023-04-21T02:25:57.362Z,83.87
2023-04-21T02:26:09.061Z,83.77
2023-04-21T02:26:19.791Z,83.77
2023-04-21T02:26:31.504Z,83.77
2023-04-21T02:26:42.297Z,83.77
2023-04-21T02:26:53.029Z,83.77
2023-04-21T02:27:04.677Z,83.81
2023-04-21T02:27:16.386Z,83.87
2023-04-21T02:27:28.184Z,83.91
2023-04-21T02:27:38.922Z,84.01
2023-04-21T02:27:50.695Z,83.98
2023-04-21T02:28:01.665Z,84.01
2023-04-21T02:28:13.353Z,83.98
2023-04-21T02:28:25.748Z,83.91